createdAt,value
2018-08-11T03:01:06.288Z,84.92
2018-08-11T03:02:06.340Z,84.92
2018-08-11T03:03:06.694Z,85.12
2018-08-11T03:04:06.746Z,85.41
2018-08-11T03:05:07.236Z,85.50
2018-08-11T03:06:07.961Z,85.69
2018-08-11T03:07:07.704Z,84.92
2018-08-11T03:08:06.057Z,85.35
2018-08-11T03:09:05.552Z,85.16
2018-08-11T03:10:05.637Z,84.59
2018-08-11T03:11:05.875Z,84.30
2018-08-11T03:12:06.049Z,84.59
2018-08-11T03:13:06.154Z,84.59
2018-08-11T03:14:06.405Z,84.69
2018-08-11T03:15:06.632Z,84.40
2018-08-11T03:16:06.861Z,84.59
2018-08-11T03:17:07.083Z,84.78
2018-08-11T03:18:07.328Z,84.78
2018-08-11T03:19:07.520Z,85.06
2018-08-11T03:20:07.467Z,85.45
2018-08-11T03:21:07.751Z,85.54
2018-08-11T03:22:07.781Z,85.35
2018-08-11T03:23:08.165Z,85.45
2018-08-11T03:24:08.250Z,85.45
2018-08-11T03:25:08.571Z,84.59
2018-08-11T03:26:08.659Z,84.69
2018-08-11T03:28:09.002Z,84.78
2018-08-11T03:29:09.300Z,84.97
2018-08-11T03:30:09.275Z,84.88
2018-08-11T03:31:10.282Z,84.49
2018-08-11T03:32:09.643Z,85.06
2018-08-11T03:33:09.691Z,85.06
2018-08-11T03:34:09.971Z,84.97
2018-08-11T03:35:10.239Z,85.64
2018-08-11T03:36:10.493Z,85.54
2018-08-11T03:37:10.504Z,85.45
2018-08-11T03:38:10.687Z,85.45
2018-08-11T03:39:10.821Z,85.64
2018-08-11T03:40:11.063Z,85.83
2018-08-11T03:41:11.238Z,85.73
2018-08-11T03:42:11.362Z,85.73
2018-08-11T03:43:11.696Z,85.93
2018-08-11T03:44:11.837Z,86.02
2018-08-11T03:45:11.964Z,85.45
2018-08-11T03:46:12.329Z,84.97
2018-08-11T03:47:12.528Z,84.97
2018-08-11T03:48:12.697Z,85.25
2018-08-11T03:49:12.792Z,84.97
2018-08-11T03:50:12.861Z,85.16
2018-08-11T03:51:13.130Z,85.16
2018-08-11T03:52:13.316Z,85.35
2018-08-11T03:53:13.617Z,85.45
2018-08-11T03:54:15.393Z,85.54
2018-08-11T03:59:37.756Z,85.54
2018-08-11T04:00:38.064Z,85.54
2018-08-11T04:01:38.246Z,85.45
2018-08-11T04:02:38.579Z,85.54
2018-08-11T04:03:38.276Z,85.25
2018-08-11T04:04:39.008Z,85.06
2018-08-11T04:05:37.350Z,85.25
2018-08-11T04:06:36.775Z,85.25
2018-08-11T04:07:36.804Z,84.88
2018-08-11T04:08:36.927Z,84.97
2018-08-11T04:09:37.262Z,85.11
2018-08-11T04:10:37.405Z,85.68
2018-08-11T04:11:37.560Z,85.11
2018-08-11T04:12:37.725Z,85.21
2018-08-11T04:13:37.805Z,85.11
2018-08-11T04:14:38.080Z,85.30
2018-08-11T04:15:38.432Z,84.53
2018-08-11T04:16:38.529Z,84.34
2018-08-11T04:17:38.514Z,84.53
2018-08-11T04:18:38.772Z,84.53
2018-08-11T04:19:38.976Z,84.63
2018-08-11T04:20:39.189Z,84.34
2018-08-11T04:21:39.301Z,84.53
2018-08-11T04:22:39.453Z,84.92
2018-08-11T04:23:39.616Z,84.44
2018-08-11T04:24:39.748Z,84.92
2018-08-11T04:25:40.031Z,84.63
2018-08-11T04:26:40.108Z,84.34
2018-08-11T04:27:40.365Z,84.82
2018-08-11T04:28:40.492Z,84.82
2018-08-11T04:29:40.774Z,84.44
2018-08-11T04:30:40.883Z,84.72
2018-08-11T04:31:41.066Z,84.92
2018-08-11T04:32:41.228Z,84.63
2018-08-11T04:33:41.359Z,84.63
2018-08-11T04:34:41.620Z,84.82
2018-08-11T04:35:41.721Z,84.82
2018-08-11T04:36:41.808Z,84.72
2018-08-11T04:37:42.063Z,85.11
2018-08-11T04:38:42.318Z,85.21
2018-08-11T04:39:42.484Z,84.53
2018-08-11T04:40:42.710Z,84.53
2018-08-11T04:41:42.893Z,84.63
2018-08-11T04:42:43.006Z,85.11
2018-08-11T04:43:43.123Z,85.21
2018-08-11T04:44:43.332Z,84.44
2018-08-11T04:45:43.522Z,84.63
2018-08-11T04:46:43.614Z,84.92
2018-08-11T04:47:43.796Z,84.92
2018-08-11T04:48:43.936Z,84.82
2018-08-11T04:49:44.244Z,84.63
2018-08-11T04:50:44.326Z,84.92
2018-08-11T04:51:44.471Z,84.53
2018-08-11T04:52:44.625Z,84.67
2018-08-11T04:53:44.822Z,84.63
2018-08-11T04:54:44.938Z,85.05
2018-08-11T04:55:45.144Z,84.39
2018-08-11T04:56:45.593Z,84.86
2018-08-11T04:57:45.449Z,84.67
2018-08-11T04:58:45.569Z,84.20
2018-08-11T04:59:45.858Z,84.39
2018-08-11T05:00:45.930Z,84.29
2018-08-11T05:01:46.081Z,84.58
2018-08-11T05:02:46.328Z,84.58
2018-08-11T05:03:46.406Z,84.10
2018-08-11T05:04:46.610Z,84.05
2018-08-11T05:05:46.847Z,84.00
2018-08-11T05:06:47.173Z,83.95
2018-08-11T05:07:47.174Z,83.47
2018-08-11T05:08:47.319Z,83.38
2018-08-11T05:09:47.480Z,83.67
2018-08-11T05:10:47.668Z,83.47
2018-08-11T05:11:47.766Z,83.76
2018-08-11T05:12:48.017Z,83.00
2018-08-11T05:13:48.235Z,83.28
2018-08-11T05:14:48.456Z,81.27
2018-08-11T05:15:48.660Z,79.79
2018-08-11T05:16:48.839Z,80.93
2018-08-11T05:18:03.947Z,80.07
2018-08-11T05:18:48.957Z,79.79
2018-08-11T05:20:56.512Z,80.02
2018-08-11T05:22:33.160Z,80.11
2018-08-11T05:24:50.397Z,79.54
2018-08-11T05:26:18.590Z,79.44
2018-08-11T05:26:50.366Z,79.73
2018-08-11T05:27:52.282Z,79.06
2018-08-11T05:28:50.866Z,76.29
2018-08-11T05:29:50.820Z,74.85
2018-08-11T05:31:52.217Z,73.36
2018-08-11T05:32:51.495Z,73.55
2018-08-11T05:33:51.443Z,73.65
2018-08-11T05:36:51.889Z,72.25
2018-08-11T05:37:52.047Z,72.63
2018-08-11T05:38:52.803Z,72.16
2018-08-11T05:39:56.946Z,71.97
2018-08-11T05:40:59.845Z,71.97
2018-08-11T05:41:52.832Z,72.06
2018-08-11T05:44:06.638Z,71.33
2018-08-11T05:45:56.299Z,71.52
2018-08-11T05:46:56.471Z,71.23
2018-08-11T05:48:58.847Z,70.47
2018-08-11T05:50:03.224Z,70.47
2018-08-11T05:52:54.928Z,69.83
2018-08-11T05:53:54.961Z,69.26
2018-08-11T05:54:55.152Z,67.82
2018-08-11T05:55:55.308Z,69.74
2018-08-11T05:56:55.348Z,70.12
2018-08-11T05:57:55.585Z,69.96
2018-08-11T05:58:55.771Z,69.68
2018-08-11T05:59:55.898Z,69.01
2018-08-11T06:00:56.089Z,67.95
2018-08-11T06:01:56.419Z,68.05
2018-08-11T06:02:56.580Z,66.80
2018-08-11T06:03:56.804Z,67.09
2018-08-11T06:04:56.844Z,67.38
2018-08-11T06:05:57.013Z,67.69
2018-08-11T06:06:57.289Z,67.50
2018-08-11T06:07:57.224Z,67.60
2018-08-11T06:08:57.519Z,66.55
2018-08-11T06:09:57.790Z,66.16
2018-08-11T06:10:57.925Z,65.49
2018-08-11T06:11:58.036Z,65.43
2018-08-11T06:12:58.126Z,65.33
2018-08-11T06:13:58.443Z,64.95
2018-08-11T06:14:58.402Z,64.28
2018-08-11T06:15:58.780Z,63.42
2018-08-11T06:16:58.857Z,63.89
2018-08-11T06:17:59.023Z,63.45
2018-08-11T06:18:59.197Z,63.16
2018-08-11T06:19:59.355Z,63.16
2018-08-11T06:20:59.595Z,62.10
2018-08-11T06:21:59.702Z,61.17
2018-08-11T06:22:59.936Z,61.94
2018-08-11T06:24:00.103Z,61.08
2018-08-11T06:25:00.183Z,62.13
2018-08-11T06:26:00.549Z,60.91
2018-08-11T06:27:00.588Z,60.63
2018-08-11T06:28:00.711Z,60.43
2018-08-11T06:29:00.916Z,60.46
2018-08-11T06:30:01.134Z,60.66
2018-08-11T06:31:01.355Z,60.56
2018-08-11T06:32:01.372Z,60.75
2018-08-11T06:33:01.680Z,60.34
2018-08-11T06:34:01.736Z,60.43
2018-08-11T06:35:01.958Z,58.89
2018-08-11T06:36:02.273Z,59.86
2018-08-11T06:37:02.405Z,60.34
2018-08-11T06:38:02.408Z,59.57
2018-08-11T06:39:02.574Z,58.70
2018-08-11T06:40:02.683Z,58.99
2018-08-11T06:41:02.934Z,59.19
2018-08-11T06:42:03.054Z,58.64
2018-08-11T06:43:03.240Z,58.25
2018-08-11T06:44:03.426Z,57.80
2018-08-11T06:45:03.532Z,56.55
2018-08-11T06:46:03.719Z,55.23
2018-08-11T06:47:04.126Z,55.33
2018-08-11T06:48:04.003Z,54.63
2018-08-11T06:49:04.199Z,55.01
2018-08-11T06:50:04.409Z,56.36
2018-08-11T06:51:04.555Z,56.65
2018-08-11T06:52:04.680Z,57.03
2018-08-11T06:53:04.828Z,56.26
2018-08-11T06:54:05.059Z,56.45
2018-08-11T06:55:05.836Z,56.26
2018-08-11T06:56:05.474Z,57.00
2018-08-11T06:57:05.483Z,56.71
2018-08-11T06:58:05.664Z,57.39
2018-08-11T06:59:05.928Z,57.29
2018-08-11T07:00:06.070Z,57.48
2018-08-11T07:01:06.265Z,57.20
2018-08-11T07:02:06.588Z,57.10
2018-08-11T07:03:06.630Z,56.62
2018-08-11T07:04:06.885Z,58.92
2018-08-11T07:05:06.972Z,61.01
2018-08-11T07:06:07.119Z,63.41
2018-08-11T07:07:07.192Z,64.72
2018-08-11T07:08:07.425Z,65.11
2018-08-11T07:09:07.472Z,65.11
2018-08-11T07:10:07.852Z,66.36
2018-08-11T07:11:07.992Z,66.52
2018-08-11T07:12:08.123Z,65.84
2018-08-11T07:13:08.372Z,67.09
2018-08-11T07:14:08.481Z,67.96
2018-08-11T07:15:08.649Z,68.15
2018-08-11T07:16:08.796Z,68.44
2018-08-11T07:17:09.010Z,67.51
2018-08-11T07:18:09.126Z,67.80
2018-08-11T07:19:09.393Z,66.84
2018-08-11T07:20:09.448Z,66.26
2018-08-11T07:21:09.763Z,66.74
2018-08-11T07:22:10.477Z,66.46
2018-08-11T07:23:09.960Z,66.49
2018-08-11T07:24:10.111Z,65.43
2018-08-11T07:25:10.379Z,65.05
2018-08-11T07:26:10.546Z,65.17
2018-08-11T07:27:10.639Z,65.46
2018-08-11T07:28:10.850Z,64.98
2018-08-11T07:29:10.968Z,62.87
2018-08-11T07:30:11.237Z,62.77
2018-08-11T07:31:11.376Z,63.35
2018-08-11T07:32:11.500Z,63.15
2018-08-11T07:33:11.704Z,62.96
2018-08-11T07:34:11.900Z,62.38
2018-08-11T07:35:12.150Z,63.06
2018-08-11T07:36:12.150Z,63.83
2018-08-11T07:37:12.300Z,62.87
2018-08-11T07:38:12.512Z,62.29
2018-08-11T07:39:12.749Z,62.19
2018-08-11T07:40:12.889Z,63.06
2018-08-11T07:41:13.157Z,62.29
2018-08-11T07:42:13.263Z,62.38
2018-08-11T07:43:13.343Z,62.96
2018-08-11T07:44:13.539Z,64.02
2018-08-11T07:45:13.771Z,63.25
2018-08-11T07:46:13.950Z,62.77
2018-08-11T07:47:14.027Z,62.19
2018-08-11T07:48:14.257Z,61.23
2018-08-11T07:49:14.445Z,60.59
2018-08-11T07:50:14.720Z,61.26
2018-08-11T07:51:14.774Z,60.69
2018-08-11T07:52:14.958Z,60.78
2018-08-11T07:53:15.121Z,60.39
2018-08-11T07:54:15.283Z,60.39
2018-08-11T07:55:15.474Z,60.33
2018-08-11T07:56:15.588Z,60.04
2018-08-11T07:57:15.823Z,58.53
2018-08-11T07:58:16.002Z,57.79
2018-08-11T07:59:16.188Z,56.73
2018-08-11T08:00:16.293Z,56.27
2018-08-11T08:01:16.502Z,56.11
2018-08-11T08:02:16.631Z,55.36
2018-08-11T08:03:16.802Z,53.47
2018-08-11T08:04:16.948Z,51.53
2018-08-11T08:05:17.145Z,49.95
2018-08-11T08:06:17.366Z,49.27
2018-08-11T08:07:17.625Z,48.76
2018-08-11T08:08:17.660Z,47.60
2018-08-11T08:09:17.799Z,48.30
2018-08-11T08:10:18.010Z,48.11
2018-08-11T08:11:18.341Z,47.72
2018-08-11T08:12:18.659Z,48.13
2018-08-11T08:13:19.212Z,46.30
2018-08-11T08:14:18.716Z,45.91
2018-08-11T08:15:18.937Z,45.74
2018-08-11T08:16:19.202Z,46.25
2018-08-11T08:17:19.365Z,45.95
2018-08-11T08:18:19.426Z,45.95
2018-08-11T08:19:19.672Z,45.93
2018-08-11T08:20:19.802Z,45.66
2018-08-11T08:21:19.939Z,46.00
2018-08-11T08:22:20.087Z,47.14
2018-08-11T08:23:20.398Z,47.16
2018-08-11T08:24:20.519Z,46.58
2018-08-11T08:25:20.675Z,47.28
2018-08-11T08:26:21.057Z,46.03
2018-08-11T08:27:21.300Z,46.66
2018-08-11T08:28:21.293Z,47.70
2018-08-11T08:29:21.333Z,48.76
2018-08-11T08:30:21.545Z,49.32
2018-08-11T08:31:21.754Z,49.96
2018-08-11T08:32:21.946Z,51.58
2018-08-11T08:33:22.124Z,52.23
2018-08-11T08:34:22.264Z,53.48
2018-08-11T08:35:22.505Z,52.95
2018-08-11T08:36:22.584Z,50.79
2018-08-11T08:37:22.748Z,48.97
2018-08-11T08:38:22.928Z,47.65
2018-08-11T08:39:23.184Z,47.41
2018-08-11T08:40:23.205Z,46.34
2018-08-11T08:41:23.685Z,45.86
2018-08-11T08:42:24.195Z,45.40
2018-08-11T08:43:23.928Z,45.42
2018-08-11T08:44:24.164Z,43.77
2018-08-11T08:45:24.880Z,44.26
2018-08-11T08:46:24.508Z,43.04
2018-08-11T08:47:24.750Z,42.38
2018-08-11T08:48:24.887Z,42.57
2018-08-11T08:49:24.944Z,42.65
2018-08-11T08:50:25.089Z,43.48
2018-08-11T08:51:25.429Z,44.23
2018-08-11T08:52:25.596Z,44.98
2018-08-11T08:53:25.848Z,45.93
2018-08-11T08:54:25.957Z,45.62
2018-08-11T08:55:26.009Z,46.20
2018-08-11T08:56:26.866Z,45.72
2018-08-11T08:57:26.587Z,45.93
2018-08-11T08:58:26.690Z,46.61
2018-08-11T08:59:27.845Z,45.72
2018-08-11T09:00:27.230Z,45.37
2018-08-11T09:01:28.575Z,44.21
2018-08-11T09:02:27.410Z,44.29
2018-08-11T09:03:27.606Z,44.67
2018-08-11T09:04:28.339Z,45.14
2018-08-11T09:05:27.892Z,45.33
2018-08-11T09:06:28.125Z,45.33
2018-08-11T09:07:28.313Z,45.98
2018-08-11T09:08:28.500Z,46.64
2018-08-11T09:09:29.034Z,47.09
2018-08-11T09:10:29.274Z,49.10
2018-08-11T09:11:28.926Z,50.26
2018-08-11T09:12:31.292Z,49.39
2018-08-11T09:13:29.430Z,49.19
2018-08-11T09:14:29.558Z,49.39
2018-08-11T09:15:29.810Z,48.64
2018-08-11T09:16:30.769Z,47.31
2018-08-11T09:17:33.235Z,46.37
2018-08-11T09:18:30.504Z,45.69
2018-08-11T09:19:30.825Z,45.72
2018-08-11T09:20:30.759Z,45.14
2018-08-11T09:22:47.323Z,44.19
2018-08-11T09:23:32.643Z,43.80
2018-08-11T09:24:31.639Z,43.51
2018-08-11T09:25:31.889Z,44.19
2018-08-11T09:26:32.057Z,44.67
2018-08-11T09:27:32.193Z,43.10
2018-08-11T09:28:32.406Z,42.99
2018-08-11T09:29:33.369Z,43.49
2018-08-11T09:30:32.740Z,43.90
2018-08-11T09:31:33.935Z,42.93
2018-08-11T09:32:33.214Z,42.66
2018-08-11T09:33:33.096Z,42.47
2018-08-11T09:34:34.538Z,43.15
2018-08-11T09:35:34.135Z,43.71
2018-08-11T09:36:33.729Z,43.98
2018-08-11T09:37:33.640Z,44.56
2018-08-11T09:38:33.776Z,43.71
2018-08-11T09:39:34.199Z,42.49
2018-08-11T09:40:34.193Z,41.66
2018-08-11T09:41:34.664Z,39.61
2018-08-11T09:42:34.639Z,40.07
2018-08-11T09:43:35.707Z,40.92
2018-08-11T09:44:35.154Z,42.45
2018-08-11T09:45:35.486Z,41.62
2018-08-11T09:46:35.324Z,39.72
2018-08-11T09:47:35.699Z,38.39
2018-08-11T09:48:35.999Z,38.00
2018-08-11T09:49:37.346Z,39.03
2018-08-11T09:50:36.356Z,39.76
2018-08-11T09:51:36.248Z,40.96
2018-08-11T09:52:36.783Z,41.14
2018-08-11T09:53:36.870Z,41.11
2018-08-11T09:54:36.781Z,42.65
2018-08-11T09:55:36.952Z,43.13
2018-08-11T09:56:37.190Z,42.55
2018-08-11T09:57:37.357Z,42.62
2018-08-11T09:58:37.523Z,42.52
2018-08-11T09:59:37.638Z,43.01
2018-08-11T10:00:37.988Z,43.78
2018-08-11T10:01:38.126Z,42.82
2018-08-11T10:02:38.251Z,42.24
2018-08-11T10:03:38.483Z,42.02
2018-08-11T10:04:38.727Z,41.93
2018-08-11T10:05:39.751Z,41.54
2018-08-11T10:06:39.255Z,42.21
2018-08-11T10:07:39.221Z,42.41
2018-08-11T10:08:39.810Z,42.19
2018-08-11T10:09:44.752Z,42.68
2018-08-11T10:10:40.006Z,43.06
2018-08-11T10:11:41.129Z,42.87
2018-08-11T10:12:40.629Z,43.16
2018-08-11T10:13:41.216Z,43.72
2018-08-11T10:14:40.652Z,44.10
2018-08-11T10:15:40.690Z,43.45
2018-08-11T10:16:40.958Z,43.08
2018-08-11T10:17:41.248Z,42.50
2018-08-11T10:18:41.576Z,41.89
2018-08-11T10:19:41.624Z,39.34
2018-08-11T10:21:17.358Z,38.04
2018-08-11T10:22:44.716Z,35.37
2018-08-11T10:23:45.660Z,33.53
2018-08-11T10:24:45.809Z,34.03
2018-08-11T10:25:45.200Z,34.42
2018-08-11T10:26:46.014Z,34.80
2018-08-11T10:27:47.878Z,34.67
2018-08-11T10:28:45.809Z,36.46
2018-08-11T10:29:46.202Z,37.13
2018-08-11T10:30:45.742Z,38.37
2018-08-11T10:31:43.785Z,39.01
2018-08-11T10:32:43.758Z,39.76
2018-08-11T10:33:44.353Z,39.88
2018-08-11T10:34:45.721Z,38.56
2018-08-11T10:35:44.569Z,39.12
2018-08-11T10:36:44.754Z,39.12
2018-08-11T10:38:45.261Z,39.78
2018-08-11T10:39:45.260Z,38.27
2018-08-11T10:40:52.227Z,38.27
2018-08-11T10:41:45.797Z,36.83
2018-08-11T10:42:45.720Z,35.33
2018-08-11T10:43:46.072Z,34.79
2018-08-11T10:44:46.066Z,33.73
2018-08-11T10:45:46.303Z,33.90
2018-08-11T10:49:28.611Z,33.26
2018-08-11T10:50:28.995Z,32.02
2018-08-11T10:51:29.299Z,31.64
2018-08-11T10:52:32.256Z,31.35
2018-08-11T10:53:29.681Z,31.34
2018-08-11T10:54:59.416Z,32.18
2018-08-11T10:56:09.919Z,33.04
2018-08-11T10:58:55.371Z,35.44
2018-08-11T11:03:57.368Z,36.72
2018-08-11T11:05:09.675Z,37.67
2018-08-11T11:05:44.311Z,38.16
2018-08-11T11:06:46.668Z,38.45
2018-08-11T11:08:44.598Z,36.78
2018-08-11T11:09:44.492Z,35.19
2018-08-11T11:10:44.479Z,33.61
2018-08-11T11:11:44.859Z,31.40
2018-08-11T11:12:44.858Z,30.07
2018-08-11T11:13:45.145Z,29.50
2018-08-11T11:14:45.258Z,29.61
2018-08-11T11:15:45.381Z,28.55
2018-08-11T11:16:45.595Z,28.43
2018-08-11T11:17:45.701Z,29.58
2018-08-11T11:18:45.935Z,29.38
2018-08-11T11:19:46.057Z,29.74
2018-08-11T11:20:46.237Z,30.66
2018-08-11T11:21:46.304Z,31.45
2018-08-11T11:22:46.576Z,30.32
2018-08-11T11:23:46.815Z,29.28
2018-08-11T11:24:46.940Z,28.90
2018-08-11T11:25:47.238Z,27.25
2018-08-11T11:26:47.339Z,27.28
2018-08-11T11:27:47.611Z,26.70
2018-08-11T11:28:47.683Z,26.14
2018-08-11T11:29:47.799Z,24.99
2018-08-11T11:30:47.949Z,25.08
2018-08-11T11:31:48.209Z,25.85
2018-08-11T11:32:48.354Z,24.39
2018-08-11T11:33:48.667Z,24.49
2018-08-11T11:34:48.697Z,24.30
2018-08-11T11:35:48.927Z,24.51
2018-08-11T11:36:49.040Z,24.62
2018-08-11T11:37:49.310Z,24.39
2018-08-11T11:38:49.354Z,24.95
2018-08-11T11:39:49.587Z,26.12
2018-08-11T11:40:49.803Z,25.84
2018-08-11T11:41:49.926Z,25.73
2018-08-11T11:42:50.212Z,25.76
2018-08-11T11:43:50.316Z,24.42
2018-08-11T11:44:50.483Z,24.53
2018-08-11T11:45:50.681Z,23.93
2018-08-11T11:46:50.741Z,23.93
2018-08-11T11:47:51.140Z,22.27
2018-08-11T11:48:51.157Z,22.81
2018-08-11T11:49:51.285Z,24.13
2018-08-11T11:50:51.515Z,24.58
2018-08-11T11:56:18.654Z,23.38
2018-08-11T11:57:13.689Z,22.81
2018-08-11T12:13:05.165Z,22.36
2018-08-11T12:14:05.835Z,21.20
2018-08-11T12:15:06.082Z,21.21
2018-08-11T12:16:05.090Z,20.74
2018-08-11T12:17:19.908Z,19.67
2018-08-11T12:18:03.907Z,19.79
2018-08-11T12:19:04.834Z,20.74
2018-08-11T12:20:03.841Z,20.83
2018-08-11T12:21:03.938Z,21.48
2018-08-11T12:22:04.581Z,21.67
2018-08-11T12:23:06.093Z,21.30
2018-08-11T12:24:04.401Z,22.24
2018-08-11T12:25:04.685Z,23.78
2018-08-11T12:26:19.473Z,23.75
2018-08-11T12:27:06.665Z,24.32
2018-08-11T12:28:07.205Z,24.62
2018-08-11T12:29:05.613Z,25.29
2018-08-11T12:30:06.011Z,25.87
2018-08-11T12:31:05.704Z,26.18
2018-08-11T12:32:35.101Z,24.94
2018-08-11T12:33:06.986Z,23.60
2018-08-11T12:34:06.572Z,22.52
2018-08-11T12:37:07.104Z,23.50
2018-08-11T12:39:07.121Z,23.97
2018-08-11T12:42:19.016Z,21.71
2018-08-11T12:47:40.474Z,24.02
2018-08-11T12:52:58.860Z,26.86
2018-08-11T12:54:15.417Z,27.15
2018-08-11T12:55:13.327Z,27.14
2018-08-11T12:55:57.570Z,27.24
2018-08-11T13:05:43.922Z,28.02
2018-08-11T13:07:28.158Z,27.93
2018-08-11T13:09:22.722Z,24.90
2018-08-11T13:11:25.238Z,22.71
2018-08-11T13:17:29.681Z,20.23
2018-08-11T13:18:03.181Z,20.45
2018-08-11T13:19:01.357Z,20.65
2018-08-11T13:20:14.075Z,19.28
2018-08-11T13:26:09.894Z,17.58
2018-08-11T13:43:21.949Z,18.27
2018-08-11T14:11:18.348Z,18.70
2018-08-11T14:24:52.428Z,18.79
2018-08-11T14:37:05.511Z,17.86
2018-08-11T14:39:20.726Z,18.64
2018-08-11T14:39:26.503Z,18.66
2018-08-11T14:55:48.965Z,17.88
2018-08-11T15:12:51.890Z,18.65
2018-08-11T15:25:00.806Z,18.37
2018-08-11T15:43:18.502Z,18.26
2018-08-11T15:44:17.730Z,17.97
2018-08-11T15:46:17.044Z,18.74
2018-08-11T15:48:17.226Z,19.41
2018-08-11T15:50:34.832Z,18.64
2018-08-11T15:57:17.894Z,19.31
2018-08-11T16:02:19.917Z,19.47
2018-08-11T16:03:23.461Z,19.47
2018-08-11T16:04:21.445Z,20.25
2018-08-11T16:05:20.217Z,20.92
2018-08-11T16:06:21.228Z,21.31
2018-08-11T16:07:18.598Z,21.22
2018-08-11T16:08:17.036Z,21.11
2018-08-11T16:14:46.230Z,23.30
2018-08-11T16:21:16.048Z,25.19
2018-08-11T16:22:16.616Z,25.29
2018-08-11T16:23:16.916Z,25.77
2018-08-11T16:24:16.778Z,25.87
2018-08-11T16:25:17.108Z,26.16
2018-08-11T16:26:15.357Z,26.26
2018-08-11T16:28:14.834Z,25.77
2018-08-11T16:37:05.475Z,25.85
2018-08-11T16:38:05.773Z,26.34
2018-08-11T16:39:07.085Z,26.34
2018-08-11T16:47:27.896Z,26.34
2018-08-11T16:48:27.615Z,25.76
2018-08-11T16:49:28.956Z,26.15
2018-08-11T16:50:28.140Z,26.82
2018-08-11T16:51:27.872Z,26.53
2018-08-11T16:52:28.583Z,26.34
2018-08-11T16:53:26.405Z,27.11
2018-08-11T16:54:26.329Z,27.11
2018-08-11T16:59:27.198Z,27.09
2018-08-11T17:05:56.364Z,27.09
2018-08-11T17:07:23.567Z,26.89
2018-08-11T17:08:56.380Z,26.99
2018-08-11T17:09:57.349Z,27.28
2018-08-11T17:10:57.693Z,27.47
2018-08-11T17:11:58.016Z,28.05
2018-08-11T17:14:00.373Z,28.05
2018-08-11T17:15:00.357Z,28.15
2018-08-11T17:15:59.172Z,27.67
2018-08-11T17:16:57.971Z,27.96
2018-08-11T17:17:58.212Z,27.96
2018-08-11T17:18:58.315Z,28.05
2018-08-11T17:20:00.270Z,27.47
2018-08-11T17:20:59.051Z,27.28
2018-08-11T17:21:59.185Z,27.36
2018-08-11T17:22:59.086Z,27.46
2018-08-11T17:24:00.740Z,28.14
2018-08-11T17:25:00.200Z,28.33
2018-08-11T17:26:00.225Z,28.81
2018-08-11T17:26:59.979Z,28.43
2018-08-11T17:28:39.783Z,28.04
2018-08-11T17:30:00.254Z,28.03
2018-08-11T17:31:00.414Z,28.13
2018-08-11T17:32:01.598Z,28.41
2018-08-11T17:34:03.994Z,28.99
2018-08-11T17:35:01.293Z,29.38
2018-08-11T17:36:02.687Z,28.89
2018-08-11T17:37:01.628Z,29.19
2018-08-11T17:52:47.896Z,30.51
2018-08-11T17:54:44.329Z,30.12
2018-08-11T17:55:08.412Z,29.64
2018-08-11T17:56:52.149Z,29.64
2018-08-11T17:57:49.639Z,29.64
2018-08-11T18:05:19.867Z,30.41
2018-08-11T18:06:17.357Z,30.90
2018-08-11T18:09:18.552Z,30.99
2018-08-11T18:10:18.160Z,31.09
2018-08-11T18:33:52.515Z,34.70
2018-08-11T18:49:51.170Z,36.31
2018-08-11T18:57:10.705Z,37.35
2018-08-11T18:59:15.697Z,37.93
2018-08-11T19:04:38.700Z,40.03
2018-08-11T19:11:55.749Z,42.39
2018-08-11T19:12:44.180Z,42.39
2018-08-11T19:14:47.206Z,42.97
2018-08-11T19:15:41.478Z,43.16
2018-08-11T19:16:41.140Z,43.54
2018-08-11T19:17:40.868Z,43.71
2018-08-11T19:18:40.749Z,44.10
2018-08-11T19:20:41.132Z,44.58
2018-08-11T19:21:41.285Z,44.94
2018-08-11T19:22:41.687Z,45.32
2018-08-11T19:23:41.629Z,45.23
2018-08-11T19:25:42.440Z,46.19
2018-08-11T19:28:43.762Z,45.61
2018-08-11T19:29:45.020Z,45.78
2018-08-11T19:32:43.721Z,45.88
2018-08-11T19:34:45.331Z,45.98
2018-08-11T19:35:46.329Z,45.88
2018-08-11T19:39:08.829Z,47.13
2018-08-11T19:41:00.208Z,47.03
2018-08-11T19:41:45.779Z,47.03
2018-08-11T19:43:45.422Z,47.20
2018-08-11T19:44:47.523Z,47.22
2018-08-11T19:46:49.519Z,47.51
2018-08-11T19:48:43.660Z,47.58
2018-08-11T19:48:46.305Z,47.30
2018-08-11T19:49:49.416Z,47.77
2018-08-11T19:50:48.598Z,47.68
2018-08-11T19:51:51.512Z,48.44
2018-08-11T19:52:52.691Z,48.54
2018-08-11T19:53:55.522Z,48.44
2018-08-11T19:55:52.449Z,48.35
2018-08-11T19:57:47.847Z,48.35
2018-08-11T19:58:48.345Z,48.52
2018-08-11T19:59:48.829Z,48.71
2018-08-11T20:01:48.793Z,49.38
2018-08-11T20:03:48.915Z,49.19
2018-08-11T20:04:49.272Z,49.57
2018-08-11T20:08:50.803Z,50.60
2018-08-11T20:10:05.261Z,50.70
2018-08-11T20:11:50.567Z,50.99
2018-08-11T20:12:50.825Z,50.99
2018-08-11T20:13:50.842Z,50.99
2018-08-11T20:14:51.229Z,51.56
2018-08-11T20:16:56.458Z,52.04
2018-08-11T20:22:05.710Z,53.26
2018-08-11T20:24:04.815Z,53.07
2018-08-11T20:25:14.377Z,53.36
2018-08-11T20:28:06.990Z,54.19
2018-08-11T20:30:40.523Z,54.10
2018-08-11T20:31:38.313Z,54.10
2018-08-11T20:32:38.738Z,54.67
2018-08-11T20:33:38.569Z,54.86
2018-08-11T20:34:39.269Z,54.67
2018-08-11T20:35:40.863Z,54.96
2018-08-11T20:36:38.983Z,55.15
2018-08-11T20:37:37.446Z,54.86
2018-08-11T20:38:37.123Z,55.05
2018-08-11T20:39:37.074Z,54.86
2018-08-11T20:40:37.379Z,54.77
2018-08-11T20:41:37.556Z,54.96
2018-08-11T20:43:37.704Z,55.53
2018-08-11T20:44:41.443Z,55.31
2018-08-11T20:45:40.919Z,55.12
2018-08-11T20:49:42.624Z,55.69
2018-08-11T20:50:42.753Z,55.88
2018-08-11T20:51:43.758Z,56.27
2018-08-11T20:52:54.805Z,56.56
